Time;durP1;ratioP1;P1;durP2;ratioP2;P2;SDS_P1;SDS_P2;PMS_P1;PMS_P2;Temp;Humidity;BMP_temperature;BMP_pressure;BME280_temperature;BME280_humidity;BME280_pressure;Samples;Min_cycle;Max_cycle;Signal;HPM_P1;HPM_P2
2021/12/15 00:01:05;;;;;;;57.67;42.47;;;;;;;7.82;95.09;102909.44;4973713;28;20348;-64
2021/12/15 00:03:31;;;;;;;56.08;42.45;;;;;;;7.83;95.11;102910.28;4993308;28;20018;-64
2021/12/15 00:05:57;;;;;;;54.60;41.10;;;;;;;7.80;95.48;102898.34;4993701;28;20031;-65
2021/12/15 00:08:22;;;;;;;56.83;42.30;;;;;;;7.84;95.53;102902.47;4993095;28;20509;-66
2021/12/15 00:10:49;;;;;;;56.20;42.15;;;;;;;7.83;95.37;102905.97;4976036;28;20432;-64
2021/12/15 00:13:17;;;;;;;56.00;41.15;;;;;;;7.82;95.34;102899.13;4975682;28;20034;-65
2021/12/15 00:15:44;;;;;;;53.92;41.65;;;;;;;7.83;95.27;102895.63;4985383;28;20509;-65
2021/12/15 00:18:10;;;;;;;54.50;41.75;;;;;;;7.81;95.40;102900.03;4992733;28;20026;-64
2021/12/15 00:20:35;;;;;;;55.08;40.97;;;;;;;7.82;94.86;102899.13;4992317;28;20053;-65
2021/12/15 00:23:02;;;;;;;55.72;41.40;;;;;;;7.81;95.57;102889.69;4992458;28;20478;-64
2021/12/15 00:25:31;;;;;;;55.30;41.13;;;;;;;7.83;95.54;102890.47;4992853;28;20045;-64
2021/12/15 00:27:57;;;;;;;54.88;40.70;;;;;;;7.83;95.52;102890.47;4992840;28;20159;-65
2021/12/15 00:30:23;;;;;;;54.75;40.42;;;;;;;7.81;95.46;102887.09;4993009;28;20059;-65
2021/12/15 00:32:49;;;;;;;56.03;40.90;;;;;;;7.83;95.49;102890.47;4975379;28;20061;-66
2021/12/15 00:35:15;;;;;;;55.47;39.78;;;;;;;7.82;95.41;102893.94;4992828;28;20128;-65
2021/12/15 00:37:40;;;;;;;56.10;40.55;;;;;;;7.84;95.51;102886.97;4990301;28;20037;-67
2021/12/15 00:40:10;;;;;;;56.72;40.50;;;;;;;7.81;95.58;102892.28;4983929;28;20030;-64
2021/12/15 00:42:35;;;;;;;54.25;40.85;;;;;;;7.80;95.98;102890.59;4992818;28;20022;-64
2021/12/15 00:45:02;;;;;;;56.25;40.47;;;;;;;7.81;95.67;102892.28;4993008;28;20027;-65
2021/12/15 00:47:27;;;;;;;58.75;43.53;;;;;;;7.82;95.12;102893.09;4991868;28;20134;-65
2021/12/15 00:49:53;;;;;;;54.75;41.20;;;;;;;7.79;95.63;102888.88;4992836;28;20030;-65
2021/12/15 00:52:18;;;;;;;58.58;40.88;;;;;;;7.81;95.71;102887.09;4992508;28;20030;-64
2021/12/15 00:54:44;;;;;;;56.53;41.03;;;;;;;7.81;95.91;102887.09;4975000;28;20026;-64
2021/12/15 00:57:10;;;;;;;54.92;40.05;;;;;;;7.79;95.19;102878.53;4992825;28;20037;-64
2021/12/15 00:59:35;;;;;;;58.67;40.60;;;;;;;7.81;95.12;102883.69;4991647;28;20030;-64
2021/12/15 01:02:01;;;;;;;55.67;41.35;;;;;;;7.79;95.80;102886.28;4989427;28;20010;-64
2021/12/15 01:04:29;;;;;;;56.40;40.85;;;;;;;7.78;95.63;102887.19;4984404;28;20019;-66
2021/12/15 01:06:58;;;;;;;57.58;41.33;;;;;;;7.78;95.72;102892.38;4979795;28;20026;-65
2021/12/15 01:09:30;;;;;;;57.88;40.85;;;;;;;7.79;95.52;102886.28;4979467;28;20397;-64
2021/12/15 01:14:36;;;;;;;55.35;39.38;;;;;;;7.79;95.39;102883.72;4984894;28;20045;-65
2021/12/15 01:19:53;;;;;;;55.25;39.35;;;;;;;7.79;95.35;102883.72;4992130;28;20387;-65
2021/12/15 01:22:33;;;;;;;56.05;40.25;;;;;;;7.79;95.38;102888.88;4983846;28;20051;-65
2021/12/15 01:25:20;;;;;;;55.33;39.90;;;;;;;7.82;95.39;102888.78;4980707;28;20023;-64
2021/12/15 01:27:47;;;;;;;53.40;39.15;;;;;;;7.78;95.60;102897.53;5003186;28;20023;-64
2021/12/15 01:30:16;;;;;;;52.00;37.55;;;;;;;7.78;95.87;102897.53;4970992;28;20034;-64
2021/12/15 01:32:42;;;;;;;53.15;38.63;;;;;;;7.74;95.22;102880.44;4990412;28;20493;-64
2021/12/15 01:35:09;;;;;;;54.70;39.28;;;;;;;7.77;95.17;102895.84;4991039;28;20467;-64
2021/12/15 01:37:35;;;;;;;53.63;38.30;;;;;;;7.73;95.23;102883.94;4990359;28;20030;-64
2021/12/15 01:40:00;;;;;;;55.55;38.83;;;;;;;7.77;95.78;102893.28;4979445;28;20034;-64
2021/12/15 01:42:29;;;;;;;52.25;38.35;;;;;;;7.76;95.46;102891.59;4982794;28;20458;-64
2021/12/15 01:47:39;;;;;;;52.78;37.72;;;;;;;7.75;95.42;102895.09;4989099;28;20414;-64
2021/12/15 01:50:06;;;;;;;54.33;38.75;;;;;;;7.78;95.63;102905.28;4991307;28;20042;-66
2021/12/15 01:52:34;;;;;;;55.22;38.53;;;;;;;7.78;95.28;102900.13;4991660;28;20532;-64
2021/12/15 01:55:15;;;;;;;50.97;37.80;;;;;;;7.77;95.78;102895.84;4991484;28;20045;-67
2021/12/15 01:57:41;;;;;;;54.80;38.17;;;;;;;7.76;95.26;102899.34;4991692;28;20057;-64
2021/12/15 02:00:19;;;;;;;53.08;38.10;;;;;;;7.78;95.53;102907.88;4991829;28;20045;-66
2021/12/15 02:02:45;;;;;;;51.93;37.13;;;;;;;7.76;95.47;102909.69;4991373;28;20029;-64
2021/12/15 02:05:12;;;;;;;56.13;38.72;;;;;;;7.76;95.41;102914.84;4992656;28;20288;-66
2021/12/15 02:07:42;;;;;;;54.53;38.00;;;;;;;7.74;95.57;102916.63;4992567;28;20117;-65
2021/12/15 02:10:08;;;;;;;53.92;37.70;;;;;;;7.78;95.70;102913.03;4991942;28;20058;-66
2021/12/15 02:12:37;;;;;;;53.78;37.28;;;;;;;7.75;95.27;102913.16;4991011;28;20034;-65
2021/12/15 02:15:11;;;;;;;53.90;36.38;;;;;;;7.76;95.04;102914.84;4977128;28;20037;-64
2021/12/15 02:17:38;;;;;;;52.15;36.88;;;;;;;7.76;95.54;102925.19;4968558;28;20104;-64
2021/12/15 02:20:05;;;;;;;54.35;37.10;;;;;;;7.74;95.27;102921.78;4991029;28;20109;-66
2021/12/15 02:22:32;;;;;;;54.22;37.65;;;;;;;7.77;95.61;102921.69;4991341;28;20100;-65
2021/12/15 02:24:57;;;;;;;54.67;37.53;;;;;;;7.75;95.43;102922.66;4973685;28;20037;-68
2021/12/15 02:27:30;;;;;;;55.83;37.05;;;;;;;7.77;95.49;102924.28;4991202;28;20038;-65
2021/12/15 02:30:02;;;;;;;55.20;37.75;;;;;;;7.78;95.44;102922.53;4991159;28;20069;-64
2021/12/15 02:32:48;;;;;;;55.45;37.67;;;;;;;7.77;95.79;102920.84;4990716;28;20026;-64
2021/12/15 02:37:57;;;;;;;53.45;36.85;;;;;;;7.76;95.70;102920.00;4975760;28;20041;-64
2021/12/15 02:40:23;;;;;;;58.10;38.80;;;;;;;7.76;95.90;102919.16;4979992;28;20035;-64
2021/12/15 02:42:49;;;;;;;53.92;37.47;;;;;;;7.77;95.47;102923.44;4982441;28;20110;-65
2021/12/15 02:45:18;;;;;;;57.33;38.13;;;;;;;7.76;95.85;102921.75;4986240;28;20042;-64
2021/12/15 02:47:44;;;;;;;56.72;37.95;;;;;;;7.76;95.26;102920.00;4993483;28;20073;-64
2021/12/15 02:50:18;;;;;;;54.38;37.15;;;;;;;7.76;95.46;102920.00;4968726;28;20059;-64
2021/12/15 02:52:43;;;;;;;57.17;36.80;;;;;;;7.74;95.79;102916.63;4995240;28;20045;-65
2021/12/15 02:55:10;;;;;;;55.25;36.78;;;;;;;7.78;95.79;102913.03;4994898;28;20472;-64
2021/12/15 02:57:35;;;;;;;56.63;38.63;;;;;;;7.75;95.18;102912.31;4991320;28;20097;-64
2021/12/15 03:00:16;;;;;;;55.42;37.00;;;;;;;7.73;95.65;102907.19;4989939;28;20426;-65
2021/12/15 03:05:18;;;;;;;53.03;36.42;;;;;;;7.78;95.10;102902.69;4994861;28;20113;-64
2021/12/15 03:07:54;;;;;;;53.83;36.72;;;;;;;7.78;95.80;102900.13;4994926;28;20045;-65
2021/12/15 03:15:50;;;;;;;53.42;36.35;;;;;;;7.78;95.36;102913.03;4986720;28;20038;-64
2021/12/15 03:18:21;;;;;;;56.38;38.00;;;;;;;7.77;95.82;102911.34;4993954;28;20030;-65
2021/12/15 03:20:54;;;;;;;53.20;36.92;;;;;;;7.78;95.90;102905.28;4994759;28;20026;-64
2021/12/15 03:23:52;;;;;;;53.53;36.05;;;;;;;7.78;95.56;102902.69;4994446;28;20014;-64
2021/12/15 03:26:24;;;;;;;53.67;36.87;;;;;;;7.79;95.20;102904.38;4994085;28;20022;-65
2021/12/15 03:39:30;;;;;;;51.03;35.25;;;;;;;7.79;95.51;102914.72;4995996;28;20034;-65
2021/12/15 03:42:01;;;;;;;53.58;34.88;;;;;;;7.79;95.64;102919.88;4994050;28;20030;-65
2021/12/15 03:44:29;;;;;;;52.88;34.80;;;;;;;7.79;95.17;102913.88;4993973;28;20030;-65
2021/12/15 03:46:56;;;;;;;51.58;34.53;;;;;;;7.79;95.28;102925.03;4994014;28;20041;-66
2021/12/15 03:49:21;;;;;;;51.08;35.42;;;;;;;7.79;95.37;102919.88;4992952;28;20106;-64
2021/12/15 03:51:47;;;;;;;55.15;35.35;;;;;;;7.80;95.78;102921.59;4993622;28;20113;-66
2021/12/15 03:54:12;;;;;;;53.88;35.33;;;;;;;7.79;95.34;102922.47;4993911;28;20034;-64
2021/12/15 03:56:40;;;;;;;51.95;35.10;;;;;;;7.80;95.34;102924.19;4993316;28;20022;-65
2021/12/15 03:59:07;;;;;;;50.70;34.63;;;;;;;7.81;95.78;102927.59;4992927;28;20145;-65
2021/12/15 04:01:32;;;;;;;52.13;35.47;;;;;;;7.82;95.32;102930.13;4993766;28;20036;-64
2021/12/15 04:03:58;;;;;;;54.85;35.80;;;;;;;7.81;95.24;102925.84;4993987;28;20026;-64
2021/12/15 04:06:26;;;;;;;52.15;35.70;;;;;;;7.79;95.68;102929.38;4993513;28;20549;-65
2021/12/15 04:08:53;;;;;;;51.47;35.00;;;;;;;7.80;95.56;102931.94;4993715;28;20026;-64
2021/12/15 04:11:21;;;;;;;50.63;35.00;;;;;;;7.80;95.91;102936.22;4993665;28;20022;-64
2021/12/15 04:13:47;;;;;;;49.97;36.13;;;;;;;7.81;95.65;102928.44;4993169;28;20038;-64
2021/12/15 04:16:41;;;;;;;50.50;34.55;;;;;;;7.79;95.78;102931.97;4985927;28;20779;-65
2021/12/15 04:19:17;;;;;;;52.10;35.03;;;;;;;7.80;96.02;102931.94;4993367;28;20044;-64
2021/12/15 04:21:43;;;;;;;50.70;34.50;;;;;;;7.78;95.62;102928.53;4993447;28;20486;-66
2021/12/15 04:24:12;;;;;;;52.13;35.40;;;;;;;7.82;95.88;102940.44;4993326;28;20022;-64
2021/12/15 04:26:38;;;;;;;50.25;34.95;;;;;;;7.82;95.98;102932.69;4992678;28;20459;-64
2021/12/15 04:29:04;;;;;;;52.50;35.05;;;;;;;7.81;95.97;102938.78;4975915;28;20032;-65
2021/12/15 04:31:33;;;;;;;50.53;34.00;;;;;;;7.79;95.80;102935.38;4992705;28;20026;-64
2021/12/15 04:34:04;;;;;;;;;;;;;;;7.90;95.86;102943.59;4993402;28;20033;-64
2021/12/15 04:36:34;;;;;;;50.55;33.97;;;;;;;7.81;95.63;102949.09;4972819;28;19910;-65
2021/12/15 04:39:01;;;;;;;50.75;34.05;;;;;;;7.80;95.21;102944.84;4992795;28;20022;-66
2021/12/15 04:41:27;;;;;;;51.65;35.38;;;;;;;7.81;95.44;102941.34;4975473;28;20030;-64
2021/12/15 04:43:58;;;;;;;50.88;34.33;;;;;;;7.81;95.91;102943.94;4986940;28;20045;-64
2021/12/15 04:46:29;;;;;;;49.90;35.00;;;;;;;7.79;96.23;102940.53;4990086;28;20034;-65
2021/12/15 04:48:55;;;;;;;50.60;33.38;;;;;;;7.80;95.65;102942.25;4991258;28;20054;-64
2021/12/15 04:51:20;;;;;;;47.72;33.10;;;;;;;7.80;95.71;102952.59;4991814;28;20433;-64
2021/12/15 04:53:47;;;;;;;49.42;34.75;;;;;;;7.78;95.47;102944.03;4978619;28;20065;-66
2021/12/15 04:56:14;;;;;;;48.75;34.05;;;;;;;7.79;95.50;102945.72;4982891;28;20038;-65
2021/12/15 04:58:40;;;;;;;45.95;32.78;;;;;;;7.80;95.49;102957.75;4992770;28;20108;-65
2021/12/15 05:01:08;;;;;;;50.28;33.97;;;;;;;7.81;95.87;102954.28;4991015;28;20113;-65
2021/12/15 05:03:35;;;;;;;46.60;33.55;;;;;;;7.82;95.49;102955.94;4992416;28;20018;-65
2021/12/15 05:06:00;;;;;;;50.05;34.33;;;;;;;7.82;95.41;102955.94;4982538;28;20031;-65
2021/12/15 05:08:27;;;;;;;48.10;33.97;;;;;;;7.82;95.89;102955.94;4984690;28;20030;-65
2021/12/15 05:10:55;;;;;;;49.92;34.53;;;;;;;7.85;95.46;102961.00;4982299;28;20026;-64
2021/12/15 05:13:21;;;;;;;47.65;32.97;;;;;;;7.84;95.50;102951.56;4981738;28;20049;-64
2021/12/15 05:15:47;;;;;;;52.20;34.20;;;;;;;7.85;95.67;102966.16;4982966;28;20032;-65
2021/12/15 05:18:12;;;;;;;50.58;34.88;;;;;;;7.84;95.75;102959.31;4991794;28;20030;-64
2021/12/15 05:20:39;;;;;;;51.95;35.85;;;;;;;7.84;95.61;102961.91;4959850;28;20034;-66
2021/12/15 05:23:06;;;;;;;51.47;34.45;;;;;;;7.87;95.89;102958.38;4983244;28;20022;-65
2021/12/15 05:25:33;;;;;;;49.58;34.03;;;;;;;7.81;95.72;102956.84;4981522;28;20014;-64
2021/12/15 05:27:59;;;;;;;50.60;34.05;;;;;;;7.85;95.61;102965.31;4990806;28;20030;-64
2021/12/15 05:30:24;;;;;;;51.42;34.38;;;;;;;7.84;95.85;102959.31;4969203;28;20030;-66
2021/12/15 05:32:50;;;;;;;52.47;34.90;;;;;;;7.84;95.57;102954.13;4985009;28;20026;-64
2021/12/15 05:35:21;;;;;;;51.97;35.38;;;;;;;7.87;95.72;102969.56;4982011;28;20018;-65
2021/12/15 05:37:48;;;;;;;50.50;34.20;;;;;;;7.87;95.54;102968.72;4987573;28;20034;-64
2021/12/15 05:40:14;;;;;;;52.58;34.03;;;;;;;7.86;95.62;102973.03;4974657;28;20022;-64
2021/12/15 05:42:39;;;;;;;51.08;34.85;;;;;;;7.86;95.69;102965.28;4991513;28;20027;-66
2021/12/15 05:45:06;;;;;;;52.70;34.17;;;;;;;7.86;96.04;102962.69;4991925;28;20058;-64
2021/12/15 05:47:32;;;;;;;53.50;35.75;;;;;;;7.86;95.89;102967.03;4991554;28;20105;-64
2021/12/15 05:49:57;;;;;;;54.47;35.83;;;;;;;7.85;95.73;102965.31;4968974;28;20498;-64
2021/12/15 05:52:27;;;;;;;54.78;37.35;;;;;;;7.84;95.71;102959.31;4977006;28;20030;-65
2021/12/15 05:54:53;;;;;;;55.00;35.55;;;;;;;7.87;95.39;102968.72;4972448;28;20120;-64
2021/12/15 05:57:18;;;;;;;52.20;35.15;;;;;;;7.88;95.97;102971.22;4971507;28;20419;-65
2021/12/15 05:59:44;;;;;;;54.83;35.55;;;;;;;7.84;95.84;102964.47;4984155;28;20447;-65
2021/12/15 06:02:09;;;;;;;52.13;35.15;;;;;;;7.89;95.97;102967.75;4987249;28;20022;-64
2021/12/15 06:04:35;;;;;;;55.28;36.58;;;;;;;7.88;95.86;102968.66;4990999;28;20033;-64
2021/12/15 06:07:01;;;;;;;57.55;36.30;;;;;;;7.90;96.11;102974.59;4991552;28;20479;-65
2021/12/15 06:09:27;;;;;;;56.30;36.03;;;;;;;7.91;95.99;102975.44;4990829;28;20478;-65
2021/12/15 06:11:53;;;;;;;52.17;35.20;;;;;;;7.89;95.75;102978.06;4961421;28;20023;-64
2021/12/15 06:14:27;;;;;;;57.08;36.47;;;;;;;7.88;95.64;102986.72;4981925;28;20029;-64
2021/12/15 06:17:03;;;;;;;57.05;36.60;;;;;;;7.90;95.67;102984.94;4983713;28;20462;-63
2021/12/15 06:19:29;;;;;;;55.33;35.88;;;;;;;7.88;95.98;102981.56;4990183;28;20034;-65
2021/12/15 06:21:54;;;;;;;58.63;36.92;;;;;;;7.88;95.68;102983.31;4984400;28;20488;-64
2021/12/15 06:24:20;;;;;;;58.75;36.20;;;;;;;7.90;95.77;102984.09;4981619;28;20041;-64
2021/12/15 06:26:45;;;;;;;60.97;38.28;;;;;;;7.87;96.22;102979.88;4959919;28;20018;-64
2021/12/15 06:29:11;;;;;;;57.72;37.78;;;;;;;7.89;96.13;102988.41;4976395;28;20473;-64
2021/12/15 06:31:38;;;;;;;62.85;38.38;;;;;;;7.89;95.93;102988.41;4961738;28;20387;-64
2021/12/15 06:34:04;;;;;;;59.90;37.20;;;;;;;7.91;95.84;102991.81;4979724;28;20056;-64
2021/12/15 06:36:30;;;;;;;60.13;38.03;;;;;;;7.91;95.52;102996.97;4976277;28;20386;-64
2021/12/15 06:38:56;;;;;;;57.97;37.00;;;;;;;7.91;95.89;102984.06;4990447;28;20073;-67
2021/12/15 06:41:22;;;;;;;66.93;38.25;;;;;;;7.90;95.93;102989.25;4990946;28;20038;-63
2021/12/15 06:43:54;;;;;;;63.80;39.05;;;;;;;7.91;95.71;103002.13;4991305;28;20061;-64
2021/12/15 06:58:11;;;;;;;66.75;38.88;;;;;;;7.95;95.79;102995.09;4929736;29;20090;-64
2021/12/15 07:00:22;;;;;;;64.88;37.42;;;;;;;7.95;96.12;102995.09;4976427;28;20044;-64
2021/12/15 07:02:48;;;;;;;66.13;39.15;;;;;;;7.90;95.76;103000.44;4981224;28;20073;-66
2021/12/15 07:05:14;;;;;;;63.50;38.83;;;;;;;7.94;96.01;103007.19;4978487;28;20026;-65
2021/12/15 07:07:43;;;;;;;66.45;38.50;;;;;;;7.95;95.93;103003.69;4980271;28;20491;-64
2021/12/15 07:10:10;;;;;;;66.15;38.08;;;;;;;7.97;95.82;103013.97;4989643;28;20084;-65
2021/12/15 07:12:36;;;;;;;62.45;37.90;;;;;;;7.97;95.70;103017.41;4989064;28;20137;-65
2021/12/15 07:15:03;;;;;;;62.03;38.28;;;;;;;7.96;96.16;103020.88;4981851;28;20137;-64
2021/12/15 07:17:29;;;;;;;60.63;37.88;;;;;;;7.97;96.12;103017.41;4984058;28;20023;-64
2021/12/15 07:20:06;;;;;;;63.67;38.45;;;;;;;7.98;95.73;103018.25;4986405;28;20053;-65
2021/12/15 07:22:43;;;;;;;65.35;39.85;;;;;;;7.98;96.47;103024.28;4983086;28;20523;-64
2021/12/15 07:25:12;;;;;;;68.60;39.40;;;;;;;7.98;96.23;103026.84;4989987;28;20118;-64
2021/12/15 07:27:38;;;;;;;;;;;;;;;8.09;96.04;103020.47;4980641;28;20030;-64
2021/12/15 07:30:04;;;;;;;60.65;37.15;;;;;;;7.99;95.72;103014.78;4977179;28;19924;-64
2021/12/15 07:32:30;;;;;;;67.53;38.63;;;;;;;7.96;95.95;103020.88;4977643;28;20039;-64
2021/12/15 07:34:55;;;;;;;63.05;38.17;;;;;;;7.99;96.17;103020.78;4993222;28;20109;-66
2021/12/15 07:37:21;;;;;;;64.95;38.58;;;;;;;7.99;96.09;103031.13;4994066;28;20399;-64
2021/12/15 07:39:55;;;;;;;68.32;38.58;;;;;;;8.01;96.13;103032.81;4994058;28;20061;-65
2021/12/15 07:42:30;;;;;;;72.53;40.50;;;;;;;7.96;96.09;103018.28;4993227;28;20031;-64
2021/12/15 07:44:56;;;;;;;65.03;38.45;;;;;;;7.96;95.89;103031.22;4993897;28;20113;-66
2021/12/15 07:47:21;;;;;;;67.32;38.97;;;;;;;7.97;96.09;103022.59;4980141;28;20465;-64
2021/12/15 07:49:46;;;;;;;61.75;38.72;;;;;;;8.03;96.08;103036.16;4992599;28;20053;-64
2021/12/15 07:52:12;;;;;;;68.95;40.17;;;;;;;8.01;95.91;103032.81;4993781;28;20022;-64
2021/12/15 07:54:37;;;;;;;61.72;38.08;;;;;;;8.02;96.09;103034.47;4993584;28;20036;-64
2021/12/15 07:57:07;;;;;;;65.95;38.47;;;;;;;8.02;95.99;103039.66;4993549;28;20034;-64
2021/12/15 07:59:33;;;;;;;62.47;37.80;;;;;;;8.02;96.12;103039.66;4993617;28;20029;-64
2021/12/15 08:01:58;;;;;;;65.15;38.70;;;;;;;7.99;95.70;103031.13;4991582;28;20022;-64
2021/12/15 08:04:23;;;;;;;63.83;38.20;;;;;;;7.99;95.88;103025.94;4993410;28;20386;-64
2021/12/15 08:06:49;;;;;;;65.07;39.20;;;;;;;8.01;95.71;103037.97;4993435;28;20034;-64
2021/12/15 08:09:15;;;;;;;65.15;38.05;;;;;;;8.01;96.19;103046.56;4973996;28;20030;-66
2021/12/15 08:11:41;;;;;;;65.57;38.88;;;;;;;8.04;95.80;103043.03;4987115;28;20034;-65
2021/12/15 08:14:08;;;;;;;64.93;38.38;;;;;;;8.04;96.01;103048.22;4986105;28;20068;-65
2021/12/15 08:16:34;;;;;;;66.05;38.70;;;;;;;8.04;96.12;103043.03;4985981;28;20061;-65
2021/12/15 08:19:00;;;;;;;65.50;39.00;;;;;;;8.03;96.28;103052.53;4986731;28;20447;-64
2021/12/15 08:21:26;;;;;;;67.32;39.83;;;;;;;8.05;96.13;103060.22;4993251;28;20026;-65
2021/12/15 08:23:51;;;;;;;65.05;38.78;;;;;;;8.04;96.03;103048.22;4991390;28;20102;-64
2021/12/15 08:26:17;;;;;;;65.28;38.83;;;;;;;8.07;95.77;103053.25;4992765;28;20407;-65
2021/12/15 08:28:43;;;;;;;66.53;39.65;;;;;;;8.05;96.40;103055.91;4992328;28;20037;-66
2021/12/15 08:31:08;;;;;;;64.43;39.83;;;;;;;8.05;95.69;103045.56;4991633;28;20034;-64
2021/12/15 08:33:34;;;;;;;70.68;40.97;;;;;;;8.08;96.38;103040.28;4992187;28;20034;-64
2021/12/15 08:36:07;;;;;;;68.57;40.05;;;;;;;8.08;95.98;103050.59;4992888;28;20084;-66
2021/12/15 08:38:35;;;;;;;65.15;40.33;;;;;;;8.10;95.97;103048.00;4993175;28;20034;-64
2021/12/15 08:41:05;;;;;;;68.85;40.05;;;;;;;8.12;96.34;103052.19;4987684;28;20030;-64
2021/12/15 08:43:33;;;;;;;67.38;39.85;;;;;;;8.12;95.92;103053.94;4990906;28;20030;-65
2021/12/15 08:46:01;;;;;;;67.28;40.35;;;;;;;8.10;96.25;103053.16;4981693;28;20105;-64
2021/12/15 08:48:27;;;;;;;64.60;39.63;;;;;;;8.12;95.63;103056.53;4970145;28;20058;-64
2021/12/15 08:50:53;;;;;;;68.07;41.00;;;;;;;8.15;95.95;103056.44;4986903;28;20069;-64
2021/12/15 08:53:19;;;;;;;68.20;41.47;;;;;;;8.16;96.12;103058.13;4980591;28;20033;-65
2021/12/15 08:55:47;;;;;;;68.25;40.50;;;;;;;8.17;95.80;103057.22;4984606;28;20026;-64
2021/12/15 08:58:14;;;;;;;72.33;42.27;;;;;;;8.16;96.22;103060.69;4981990;28;20089;-64
2021/12/15 09:00:43;;;;;;;66.70;40.67;;;;;;;8.14;95.98;103059.88;4989105;28;20045;-66
2021/12/15 09:03:09;;;;;;;70.57;41.40;;;;;;;8.19;96.08;103060.56;4980541;28;20408;-64
2021/12/15 09:05:35;;;;;;;68.38;42.58;;;;;;;8.19;95.93;103058.81;4989174;28;20467;-63
2021/12/15 09:08:03;;;;;;;67.35;40.78;;;;;;;8.20;95.77;103070.00;4990075;28;20049;-65
2021/12/15 09:10:31;;;;;;;66.80;41.30;;;;;;;8.23;96.03;103064.75;4963309;28;20031;-64
2021/12/15 09:12:58;;;;;;;67.85;42.55;;;;;;;8.22;95.93;103068.22;4990805;28;20053;-66
2021/12/15 09:15:24;;;;;;;72.43;42.42;;;;;;;8.24;95.78;103066.44;4987024;28;20034;-63
2021/12/15 09:17:51;;;;;;;71.00;42.50;;;;;;;8.22;95.71;103068.22;4983241;28;20076;-65
2021/12/15 09:20:20;;;;;;;65.43;42.10;;;;;;;8.25;96.15;103074.13;4984174;28;20034;-65
2021/12/15 09:22:46;;;;;;;69.38;42.35;;;;;;;8.27;95.90;103075.84;4985876;28;20023;-64
2021/12/15 09:25:12;;;;;;;69.07;42.53;;;;;;;8.27;95.80;103076.66;4987777;28;20037;-64
2021/12/15 09:27:39;;;;;;;68.22;42.25;;;;;;;8.29;96.11;103087.78;4980675;28;20030;-65
2021/12/15 09:30:07;;;;;;;67.90;42.58;;;;;;;8.30;96.09;103096.38;4982348;28;20061;-64
2021/12/15 09:32:33;;;;;;;68.85;42.65;;;;;;;8.31;96.00;103093.75;4980275;28;20034;-66
2021/12/15 09:34:58;;;;;;;65.20;42.67;;;;;;;8.32;95.69;103090.28;4985454;28;20233;-64
2021/12/15 09:37:28;;;;;;;67.10;43.13;;;;;;;8.34;95.75;103085.03;4981596;28;20401;-67
2021/12/15 09:39:54;;;;;;;66.60;42.65;;;;;;;8.34;95.62;103093.63;4977114;28;20080;-65
2021/12/15 09:42:25;;;;;;;67.38;42.88;;;;;;;8.36;95.97;103091.88;4985282;28;20052;-64
2021/12/15 09:44:54;;;;;;;68.13;43.17;;;;;;;8.37;95.86;103093.59;4967002;28;20471;-64
2021/12/15 09:47:39;;;;;;;68.20;43.50;;;;;;;8.39;95.72;103091.78;4986664;28;20044;-64
2021/12/15 10:04:04;;;;;;;64.80;42.47;;;;;;;8.54;95.76;103105.03;4980582;28;20410;-64
2021/12/15 10:20:03;;;;;;;63.50;43.00;;;;;;;8.68;95.30;103118.31;4981108;28;20506;-65
2021/12/15 10:22:43;;;;;;;63.05;43.22;;;;;;;8.72;95.52;103100.03;4989627;28;20030;-64
2021/12/15 10:25:14;;;;;;;62.47;44.03;;;;;;;8.75;95.40;103104.25;4980503;28;20445;-64
2021/12/15 10:27:41;;;;;;;62.33;43.55;;;;;;;8.77;95.47;103097.25;4980712;28;20036;-64
2021/12/15 10:30:28;;;;;;;61.47;44.17;;;;;;;8.80;95.27;103112.69;4984364;28;20134;-65
2021/12/15 10:33:00;;;;;;;63.03;44.20;;;;;;;8.84;95.16;103103.91;4997523;28;20030;-64
2021/12/15 10:35:29;;;;;;;63.72;45.60;;;;;;;8.85;94.95;103102.16;4983087;28;20058;-64
2021/12/15 10:38:31;;;;;;;61.38;43.28;;;;;;;8.92;95.07;103107.03;4991743;28;20030;-64
2021/12/15 10:41:07;;;;;;;61.35;44.33;;;;;;;8.89;94.89;103101.13;4914373;29;20043;-64
2021/12/15 10:43:57;;;;;;;62.45;44.17;;;;;;;8.94;95.07;103100.03;4969874;28;20042;-64
2021/12/15 10:46:28;;;;;;;58.95;44.22;;;;;;;8.92;94.50;103101.88;4972468;28;20050;-66
2021/12/15 10:48:55;;;;;;;61.95;44.90;;;;;;;8.95;94.44;103096.59;4985797;28;20467;-64
2021/12/15 10:51:23;;;;;;;61.97;45.55;;;;;;;8.98;94.55;103101.63;4981523;28;20026;-64
2021/12/15 10:53:50;;;;;;;63.22;46.13;;;;;;;8.98;94.59;103109.41;4980191;28;20041;-64
2021/12/15 10:56:25;;;;;;;57.97;44.25;;;;;;;9.00;94.27;103110.19;4964731;28;20060;-64
2021/12/15 10:58:55;;;;;;;61.10;45.70;;;;;;;9.01;94.51;103101.53;4983529;28;20359;-64
2021/12/15 11:01:50;;;;;;;58.47;45.10;;;;;;;9.04;94.25;103109.16;4979131;28;20467;-64
2021/12/15 11:04:18;;;;;;;61.33;45.47;;;;;;;9.04;94.61;103101.38;4981458;28;20500;-64
2021/12/15 11:06:43;;;;;;;59.20;46.08;;;;;;;9.05;94.14;103097.88;4981146;28;20052;-65
2021/12/15 11:09:14;;;;;;;59.47;45.17;;;;;;;9.09;94.15;103102.97;4987292;28;20625;-64
2021/12/15 11:11:56;;;;;;;61.22;46.38;;;;;;;9.14;94.23;103101.88;4984201;28;20027;-64
2021/12/15 11:14:33;;;;;;;62.70;46.25;;;;;;;9.14;94.73;103101.88;4981976;28;20046;-65
2021/12/15 11:17:16;;;;;;;62.42;46.10;;;;;;;9.16;94.06;103094.06;4985393;28;20399;-65
2021/12/15 11:19:56;;;;;;;61.70;47.00;;;;;;;9.20;94.12;103106.81;4986190;28;20036;-65
2021/12/15 11:22:33;;;;;;;60.47;46.30;;;;;;;9.21;93.87;103098.13;4984283;28;21463;-64
2021/12/15 11:25:01;;;;;;;58.03;45.80;;;;;;;9.20;93.77;103095.63;4992446;28;20069;-64
2021/12/15 11:27:27;;;;;;;61.03;46.83;;;;;;;9.23;93.88;103101.53;4983137;28;20026;-64
2021/12/15 11:29:52;;;;;;;58.50;46.13;;;;;;;9.24;93.59;103105.81;4986880;28;20023;-65
2021/12/15 11:32:37;;;;;;;57.92;45.38;;;;;;;9.29;93.55;103101.28;4983683;28;20053;-64
2021/12/15 11:35:10;;;;;;;57.40;45.30;;;;;;;9.27;93.03;103097.06;4983190;28;20038;-64
2021/12/15 11:38:07;;;;;;;57.30;45.40;;;;;;;9.32;93.13;103095.13;4981256;28;20084;-66
2021/12/15 11:40:55;;;;;;;56.35;45.42;;;;;;;9.31;93.40;103088.28;4966911;28;20046;-65
2021/12/15 11:43:35;;;;;;;59.47;45.53;;;;;;;9.31;93.27;103083.09;4974831;28;20073;-64
2021/12/15 11:46:03;;;;;;;54.78;44.80;;;;;;;9.29;93.33;103074.56;4985029;28;20034;-64
2021/12/15 11:48:36;;;;;;;55.80;44.63;;;;;;;9.31;93.24;103094.28;4985144;28;20050;-64
2021/12/15 11:51:04;;;;;;;58.55;45.35;;;;;;;9.31;92.73;103093.44;4985175;28;20490;-64
2021/12/15 11:53:35;;;;;;;54.65;44.15;;;;;;;9.33;93.09;103086.44;4982989;28;20085;-64
2021/12/15 11:56:19;;;;;;;53.67;44.10;;;;;;;9.37;92.80;103087.19;4984601;28;20568;-64
2021/12/15 11:58:45;;;;;;;52.70;44.15;;;;;;;9.36;92.26;103096.69;4982694;28;20038;-64
2021/12/15 12:01:56;;;;;;;52.50;43.17;;;;;;;9.41;92.22;103099.13;4983117;28;20038;-64
2021/12/15 12:04:25;;;;;;;53.20;43.72;;;;;;;9.39;92.69;103090.53;4980165;28;20038;-65
2021/12/15 12:06:53;;;;;;;;;;;;;;;9.47;92.61;103089.34;4985181;28;20030;-64
2021/12/15 12:09:20;;;;;;;52.17;41.97;;;;;;;9.38;92.46;103089.69;4983165;28;19922;-66
2021/12/15 12:11:52;;;;;;;51.05;42.45;;;;;;;9.37;92.50;103085.44;4980279;28;20037;-64
2021/12/15 12:14:37;;;;;;;48.05;41.50;;;;;;;9.39;92.28;103077.59;4982579;28;20035;-65
2021/12/15 12:17:06;;;;;;;52.08;43.35;;;;;;;9.37;92.17;103066.47;4995136;28;20029;-64
2021/12/15 12:19:32;;;;;;;50.08;41.83;;;;;;;9.41;92.01;103076.66;5001392;28;20037;-64
2021/12/15 12:21:58;;;;;;;49.85;42.25;;;;;;;9.43;91.85;103077.41;4994090;28;20026;-64
2021/12/15 12:24:24;;;;;;;51.70;42.78;;;;;;;9.34;92.37;103057.06;5003924;28;20022;-64
2021/12/15 12:26:50;;;;;;;52.60;42.47;;;;;;;9.45;91.87;103070.41;4993079;28;20145;-64
2021/12/15 12:29:16;;;;;;;56.20;43.75;;;;;;;9.46;91.86;103077.31;4993146;28;20105;-65
2021/12/15 12:31:41;;;;;;;51.63;42.63;;;;;;;9.43;91.91;103072.22;4993069;28;20463;-65
2021/12/15 12:34:07;;;;;;;51.15;42.58;;;;;;;9.46;91.90;103066.94;4993157;28;20029;-64